Terminal Aerodrome Forecast
Issued by NWS Albuquerque, NM

Home | Current Version | Previous Version | Text Only | Print | Product List | Glossary On
Versions: 1 2 3 4 5 6 7 8 9 10 11 12
000
FTUS45 KABQ 260500
TAFABQ
TAF
KABQ 260536Z 2606/2706 14005KT P6SM SCT120
     FM261900 23011G21KT P6SM VCSH BKN100
     FM270000 23010KT P6SM SCT100=

USA.gov is the U.S. government's official web portal to all federal, state and local government web resources and services.